sensor_id;sensor_type;location;lat;lon;timestamp;temperature;humidity
14924;DHT22;7554;43.600;1.480;2022-08-19T00:00:23;20.00;1.00
14924;DHT22;7554;43.600;1.480;2022-08-19T00:02:51;19.80;1.00
14924;DHT22;7554;43.600;1.480;2022-08-19T00:05:20;19.80;1.00
14924;DHT22;7554;43.600;1.480;2022-08-19T00:07:49;19.70;1.00
14924;DHT22;7554;43.600;1.480;2022-08-19T00:10:19;19.70;1.00
14924;DHT22;7554;43.600;1.480;2022-08-19T00:12:47;19.70;1.00
14924;DHT22;7554;43.600;1.480;2022-08-19T00:15:16;19.60;1.00
14924;DHT22;7554;43.600;1.480;2022-08-19T00:17:45;19.50;1.00
14924;DHT22;7554;43.600;1.480;2022-08-19T00:20:15;19.60;1.00
14924;DHT22;7554;43.600;1.480;2022-08-19T00:22:44;19.50;1.00
14924;DHT22;7554;43.600;1.480;2022-08-19T00:25:12;19.50;1.00
14924;DHT22;7554;43.600;1.480;2022-08-19T00:27:40;19.50;1.00
14924;DHT22;7554;43.600;1.480;2022-08-19T00:30:09;19.50;1.00
14924;DHT22;7554;43.600;1.480;2022-08-19T00:32:37;19.40;1.00
14924;DHT22;7554;43.600;1.480;2022-08-19T00:35:05;19.30;1.00
14924;DHT22;7554;43.600;1.480;2022-08-19T00:37:33;19.30;1.00
14924;DHT22;7554;43.600;1.480;2022-08-19T00:40:02;19.30;1.00
14924;DHT22;7554;43.600;1.480;2022-08-19T00:42:30;19.30;1.00
14924;DHT22;7554;43.600;1.480;2022-08-19T00:44:59;19.30;1.00
14924;DHT22;7554;43.600;1.480;2022-08-19T00:47:26;19.40;1.00
14924;DHT22;7554;43.600;1.480;2022-08-19T00:49:57;19.40;1.00
14924;DHT22;7554;43.600;1.480;2022-08-19T00:52:27;19.40;1.00
14924;DHT22;7554;43.600;1.480;2022-08-19T00:54:56;19.40;1.00
14924;DHT22;7554;43.600;1.480;2022-08-19T00:57:28;19.40;1.00
14924;DHT22;7554;43.600;1.480;2022-08-19T00:59:59;19.20;1.00
14924;DHT22;7554;43.600;1.480;2022-08-19T01:02:29;19.20;1.00
14924;DHT22;7554;43.600;1.480;2022-08-19T01:04:57;19.30;1.00
14924;DHT22;7554;43.600;1.480;2022-08-19T01:07:26;19.40;1.00
14924;DHT22;7554;43.600;1.480;2022-08-19T01:09:53;19.50;1.00
14924;DHT22;7554;43.600;1.480;2022-08-19T01:12:21;19.40;1.00
14924;DHT22;7554;43.600;1.480;2022-08-19T01:14:50;19.50;1.00
14924;DHT22;7554;43.600;1.480;2022-08-19T01:17:20;19.50;1.00
14924;DHT22;7554;43.600;1.480;2022-08-19T01:19:49;19.50;1.00
14924;DHT22;7554;43.600;1.480;2022-08-19T01:24:51;19.50;1.00
14924;DHT22;7554;43.600;1.480;2022-08-19T01:27:19;19.50;1.00
14924;DHT22;7554;43.600;1.480;2022-08-19T01:29:46;19.50;1.00
14924;DHT22;7554;43.600;1.480;2022-08-19T01:32:16;19.50;1.00
14924;DHT22;7554;43.600;1.480;2022-08-19T01:34:45;19.40;1.00
14924;DHT22;7554;43.600;1.480;2022-08-19T01:37:14;19.40;1.00
14924;DHT22;7554;43.600;1.480;2022-08-19T01:39:42;19.30;1.00
14924;DHT22;7554;43.600;1.480;2022-08-19T01:42:11;19.20;1.00
14924;DHT22;7554;43.600;1.480;2022-08-19T01:44:39;19.10;1.00
14924;DHT22;7554;43.600;1.480;2022-08-19T01:47:07;19.00;1.00
14924;DHT22;7554;43.600;1.480;2022-08-19T01:49:35;18.90;1.00
14924;DHT22;7554;43.600;1.480;2022-08-19T01:52:04;18.90;1.00
14924;DHT22;7554;43.600;1.480;2022-08-19T01:54:33;19.00;1.00
14924;DHT22;7554;43.600;1.480;2022-08-19T01:57:03;19.00;1.00
14924;DHT22;7554;43.600;1.480;2022-08-19T01:59:34;19.00;1.00
14924;DHT22;7554;43.600;1.480;2022-08-19T02:02:02;19.00;1.00
14924;DHT22;7554;43.600;1.480;2022-08-19T02:04:33;19.00;1.00
14924;DHT22;7554;43.600;1.480;2022-08-19T02:07:01;19.10;1.00
14924;DHT22;7554;43.600;1.480;2022-08-19T02:09:29;19.20;1.00
14924;DHT22;7554;43.600;1.480;2022-08-19T02:11:57;19.20;1.00
14924;DHT22;7554;43.600;1.480;2022-08-19T02:14:24;19.10;1.00
14924;DHT22;7554;43.600;1.480;2022-08-19T02:16:53;19.00;1.00
14924;DHT22;7554;43.600;1.480;2022-08-19T02:19:21;19.00;1.00
14924;DHT22;7554;43.600;1.480;2022-08-19T02:21:48;19.00;1.00
14924;DHT22;7554;43.600;1.480;2022-08-19T02:24:15;19.00;1.00
14924;DHT22;7554;43.600;1.480;2022-08-19T02:26:43;19.10;1.00
14924;DHT22;7554;43.600;1.480;2022-08-19T02:29:10;19.10;1.00
14924;DHT22;7554;43.600;1.480;2022-08-19T02:31:38;19.20;1.00
14924;DHT22;7554;43.600;1.480;2022-08-19T02:34:07;19.20;1.00
14924;DHT22;7554;43.600;1.480;2022-08-19T02:36:54;19.30;1.00
14924;DHT22;7554;43.600;1.480;2022-08-19T02:39:21;19.20;1.00
14924;DHT22;7554;43.600;1.480;2022-08-19T02:41:47;19.20;1.00
14924;DHT22;7554;43.600;1.480;2022-08-19T02:44:16;19.10;1.00
14924;DHT22;7554;43.600;1.480;2022-08-19T02:46:45;19.20;1.00
14924;DHT22;7554;43.600;1.480;2022-08-19T02:49:14;19.20;1.00
14924;DHT22;7554;43.600;1.480;2022-08-19T02:51:45;19.20;1.00
14924;DHT22;7554;43.600;1.480;2022-08-19T02:54:13;19.20;1.00
14924;DHT22;7554;43.600;1.480;2022-08-19T02:56:41;19.00;1.00
14924;DHT22;7554;43.600;1.480;2022-08-19T02:59:09;18.90;1.00
14924;DHT22;7554;43.600;1.480;2022-08-19T03:01:38;18.80;1.00
14924;DHT22;7554;43.600;1.480;2022-08-19T03:04:08;18.80;1.00
14924;DHT22;7554;43.600;1.480;2022-08-19T03:06:38;18.80;1.00
14924;DHT22;7554;43.600;1.480;2022-08-19T03:09:07;18.90;1.00
14924;DHT22;7554;43.600;1.480;2022-08-19T03:11:35;18.90;1.00
14924;DHT22;7554;43.600;1.480;2022-08-19T03:14:03;18.80;1.00
14924;DHT22;7554;43.600;1.480;2022-08-19T03:16:34;18.90;1.00
14924;DHT22;7554;43.600;1.480;2022-08-19T03:19:02;19.00;1.00
14924;DHT22;7554;43.600;1.480;2022-08-19T03:21:32;19.10;1.00
14924;DHT22;7554;43.600;1.480;2022-08-19T03:24:03;19.10;1.00
14924;DHT22;7554;43.600;1.480;2022-08-19T03:26:31;19.10;1.00
14924;DHT22;7554;43.600;1.480;2022-08-19T03:29:02;19.00;1.00
14924;DHT22;7554;43.600;1.480;2022-08-19T03:31:29;19.00;1.00
14924;DHT22;7554;43.600;1.480;2022-08-19T03:33:57;19.00;1.00
14924;DHT22;7554;43.600;1.480;2022-08-19T03:36:25;18.90;1.00
14924;DHT22;7554;43.600;1.480;2022-08-19T03:38:55;18.80;1.00
14924;DHT22;7554;43.600;1.480;2022-08-19T03:41:26;18.70;1.00
14924;DHT22;7554;43.600;1.480;2022-08-19T03:43:54;18.60;1.00
14924;DHT22;7554;43.600;1.480;2022-08-19T03:46:24;18.60;1.00
14924;DHT22;7554;43.600;1.480;2022-08-19T03:48:53;18.70;1.00
14924;DHT22;7554;43.600;1.480;2022-08-19T03:51:23;18.70;1.00
14924;DHT22;7554;43.600;1.480;2022-08-19T03:53:51;18.70;1.00
14924;DHT22;7554;43.600;1.480;2022-08-19T03:56:19;18.70;1.00
14924;DHT22;7554;43.600;1.480;2022-08-19T03:58:48;18.70;1.00
14924;DHT22;7554;43.600;1.480;2022-08-19T04:01:18;18.60;1.00
14924;DHT22;7554;43.600;1.480;2022-08-19T04:03:46;18.60;1.00
14924;DHT22;7554;43.600;1.480;2022-08-19T04:06:16;18.50;1.00
14924;DHT22;7554;43.600;1.480;2022-08-19T04:08:45;18.50;1.00
14924;DHT22;7554;43.600;1.480;2022-08-19T04:11:15;18.40;1.00
14924;DHT22;7554;43.600;1.480;2022-08-19T04:13:43;18.40;1.00
14924;DHT22;7554;43.600;1.480;2022-08-19T04:16:12;18.40;1.00
14924;DHT22;7554;43.600;1.480;2022-08-19T04:18:41;18.30;1.00
14924;DHT22;7554;43.600;1.480;2022-08-19T04:21:08;18.40;1.00
14924;DHT22;7554;43.600;1.480;2022-08-19T04:23:41;18.50;1.00
14924;DHT22;7554;43.600;1.480;2022-08-19T04:26:13;18.60;1.00
14924;DHT22;7554;43.600;1.480;2022-08-19T04:28:41;18.80;1.00
14924;DHT22;7554;43.600;1.480;2022-08-19T04:31:15;18.80;1.00
14924;DHT22;7554;43.600;1.480;2022-08-19T04:33:43;18.90;1.00
14924;DHT22;7554;43.600;1.480;2022-08-19T04:36:16;18.90;1.00
14924;DHT22;7554;43.600;1.480;2022-08-19T04:38:46;18.90;1.00
14924;DHT22;7554;43.600;1.480;2022-08-19T04:41:14;18.90;1.00
14924;DHT22;7554;43.600;1.480;2022-08-19T04:43:59;19.00;1.00
14924;DHT22;7554;43.600;1.480;2022-08-19T04:46:28;18.90;1.00
14924;DHT22;7554;43.600;1.480;2022-08-19T04:48:58;18.90;1.00
14924;DHT22;7554;43.600;1.480;2022-08-19T04:51:25;18.90;1.00
14924;DHT22;7554;43.600;1.480;2022-08-19T04:53:53;18.90;1.00
14924;DHT22;7554;43.600;1.480;2022-08-19T04:56:21;18.90;1.00
14924;DHT22;7554;43.600;1.480;2022-08-19T04:58:49;18.90;1.00
14924;DHT22;7554;43.600;1.480;2022-08-19T05:01:20;18.90;1.00
14924;DHT22;7554;43.600;1.480;2022-08-19T05:03:50;18.90;1.00
14924;DHT22;7554;43.600;1.480;2022-08-19T05:06:19;18.80;1.00
14924;DHT22;7554;43.600;1.480;2022-08-19T05:08:48;18.90;1.00
14924;DHT22;7554;43.600;1.480;2022-08-19T05:11:17;19.00;1.00
14924;DHT22;7554;43.600;1.480;2022-08-19T05:13:46;18.90;1.00
14924;DHT22;7554;43.600;1.480;2022-08-19T05:16:16;18.90;1.00
14924;DHT22;7554;43.600;1.480;2022-08-19T05:18:44;18.90;1.00
14924;DHT22;7554;43.600;1.480;2022-08-19T05:21:31;18.80;1.00
14924;DHT22;7554;43.600;1.480;2022-08-19T05:24:16;18.90;1.00
14924;DHT22;7554;43.600;1.480;2022-08-19T05:26:45;18.90;1.00
14924;DHT22;7554;43.600;1.480;2022-08-19T05:29:14;18.90;1.00
14924;DHT22;7554;43.600;1.480;2022-08-19T05:31:42;18.90;1.00
14924;DHT22;7554;43.600;1.480;2022-08-19T05:34:10;18.80;1.00
14924;DHT22;7554;43.600;1.480;2022-08-19T05:36:40;18.80;1.00
14924;DHT22;7554;43.600;1.480;2022-08-19T05:39:11;18.80;1.00
14924;DHT22;7554;43.600;1.480;2022-08-19T05:41:42;18.90;1.00
14924;DHT22;7554;43.600;1.480;2022-08-19T05:44:10;18.90;1.00
14924;DHT22;7554;43.600;1.480;2022-08-19T05:46:38;19.00;1.00
14924;DHT22;7554;43.600;1.480;2022-08-19T05:49:07;19.20;1.00
14924;DHT22;7554;43.600;1.480;2022-08-19T05:51:35;19.30;1.00
14924;DHT22;7554;43.600;1.480;2022-08-19T05:54:06;19.30;1.00
14924;DHT22;7554;43.600;1.480;2022-08-19T05:56:34;19.50;1.00
14924;DHT22;7554;43.600;1.480;2022-08-19T05:59:04;19.60;1.00
14924;DHT22;7554;43.600;1.480;2022-08-19T06:01:37;19.60;1.00
14924;DHT22;7554;43.600;1.480;2022-08-19T06:04:06;19.60;1.00
14924;DHT22;7554;43.600;1.480;2022-08-19T06:06:33;19.50;1.00
14924;DHT22;7554;43.600;1.480;2022-08-19T06:09:02;19.70;1.00
14924;DHT22;7554;43.600;1.480;2022-08-19T06:11:35;19.80;1.00
14924;DHT22;7554;43.600;1.480;2022-08-19T06:14:05;19.80;1.00
14924;DHT22;7554;43.600;1.480;2022-08-19T06:16:34;19.90;1.00
14924;DHT22;7554;43.600;1.480;2022-08-19T06:19:03;20.00;1.00
14924;DHT22;7554;43.600;1.480;2022-08-19T06:21:33;20.00;1.00
14924;DHT22;7554;43.600;1.480;2022-08-19T06:24:03;20.10;1.00
14924;DHT22;7554;43.600;1.480;2022-08-19T06:26:34;20.10;1.00
14924;DHT22;7554;43.600;1.480;2022-08-19T06:29:02;20.20;1.00
14924;DHT22;7554;43.600;1.480;2022-08-19T06:31:32;20.40;1.00
14924;DHT22;7554;43.600;1.480;2022-08-19T06:34:01;20.50;1.00
14924;DHT22;7554;43.600;1.480;2022-08-19T06:36:31;20.80;1.00
14924;DHT22;7554;43.600;1.480;2022-08-19T06:39:00;21.30;1.00
14924;DHT22;7554;43.600;1.480;2022-08-19T06:41:28;21.50;1.00
14924;DHT22;7554;43.600;1.480;2022-08-19T06:43:58;21.40;1.00
14924;DHT22;7554;43.600;1.480;2022-08-19T06:46:26;21.20;1.00
14924;DHT22;7554;43.600;1.480;2022-08-19T06:48:53;21.10;1.00
14924;DHT22;7554;43.600;1.480;2022-08-19T06:51:21;21.20;1.00
14924;DHT22;7554;43.600;1.480;2022-08-19T06:53:51;21.60;1.00
14924;DHT22;7554;43.600;1.480;2022-08-19T06:56:22;22.80;1.00
14924;DHT22;7554;43.600;1.480;2022-08-19T06:58:51;23.90;1.00
14924;DHT22;7554;43.600;1.480;2022-08-19T07:01:20;24.00;1.00
14924;DHT22;7554;43.600;1.480;2022-08-19T07:03:48;23.40;1.00
14924;DHT22;7554;43.600;1.480;2022-08-19T07:06:17;23.20;1.00
14924;DHT22;7554;43.600;1.480;2022-08-19T07:08:47;23.00;1.00
14924;DHT22;7554;43.600;1.480;2022-08-19T07:11:16;23.10;1.00
14924;DHT22;7554;43.600;1.480;2022-08-19T07:13:45;23.10;1.00
14924;DHT22;7554;43.600;1.480;2022-08-19T07:16:16;23.30;1.00
14924;DHT22;7554;43.600;1.480;2022-08-19T07:18:46;25.40;1.00
14924;DHT22;7554;43.600;1.480;2022-08-19T07:21:16;25.90;1.00
14924;DHT22;7554;43.600;1.480;2022-08-19T07:23:45;25.50;1.00
14924;DHT22;7554;43.600;1.480;2022-08-19T07:26:15;24.60;1.00
14924;DHT22;7554;43.600;1.480;2022-08-19T07:28:43;24.30;1.00
14924;DHT22;7554;43.600;1.480;2022-08-19T07:31:11;23.50;1.00
14924;DHT22;7554;43.600;1.480;2022-08-19T07:33:39;23.20;1.00
14924;DHT22;7554;43.600;1.480;2022-08-19T07:36:11;23.20;1.00
14924;DHT22;7554;43.600;1.480;2022-08-19T07:38:42;23.70;1.00
14924;DHT22;7554;43.600;1.480;2022-08-19T07:41:10;24.20;1.00
14924;DHT22;7554;43.600;1.480;2022-08-19T07:43:38;23.60;1.00
14924;DHT22;7554;43.600;1.480;2022-08-19T07:46:06;22.80;1.00
14924;DHT22;7554;43.600;1.480;2022-08-19T07:48:35;22.50;1.00
14924;DHT22;7554;43.600;1.480;2022-08-19T07:51:04;22.20;1.00
14924;DHT22;7554;43.600;1.480;2022-08-19T07:53:36;22.40;1.00
14924;DHT22;7554;43.600;1.480;2022-08-19T07:56:04;22.50;1.00
14924;DHT22;7554;43.600;1.480;2022-08-19T07:58:34;22.20;1.00
14924;DHT22;7554;43.600;1.480;2022-08-19T08:01:04;22.30;1.00
14924;DHT22;7554;43.600;1.480;2022-08-19T08:03:33;22.40;1.00
14924;DHT22;7554;43.600;1.480;2022-08-19T08:06:18;22.60;1.00
14924;DHT22;7554;43.600;1.480;2022-08-19T08:09:05;23.80;1.00
14924;DHT22;7554;43.600;1.480;2022-08-19T08:11:44;23.70;1.00
14924;DHT22;7554;43.600;1.480;2022-08-19T08:14:15;23.20;1.00
14924;DHT22;7554;43.600;1.480;2022-08-19T08:16:43;22.70;1.00
14924;DHT22;7554;43.600;1.480;2022-08-19T08:19:11;22.40;1.00
14924;DHT22;7554;43.600;1.480;2022-08-19T08:21:41;22.60;1.00
14924;DHT22;7554;43.600;1.480;2022-08-19T08:24:10;22.60;1.00
14924;DHT22;7554;43.600;1.480;2022-08-19T08:26:38;22.60;1.00
14924;DHT22;7554;43.600;1.480;2022-08-19T08:29:06;22.90;1.00
14924;DHT22;7554;43.600;1.480;2022-08-19T08:31:37;23.70;1.00
14924;DHT22;7554;43.600;1.480;2022-08-19T08:34:05;24.00;1.00
14924;DHT22;7554;43.600;1.480;2022-08-19T08:36:33;25.50;1.00
14924;DHT22;7554;43.600;1.480;2022-08-19T08:39:06;25.60;1.00
14924;DHT22;7554;43.600;1.480;2022-08-19T08:41:42;24.60;1.00
14924;DHT22;7554;43.600;1.480;2022-08-19T08:44:16;24.10;1.00
14924;DHT22;7554;43.600;1.480;2022-08-19T08:46:48;24.30;1.00
14924;DHT22;7554;43.600;1.480;2022-08-19T08:49:24;24.50;1.00
14924;DHT22;7554;43.600;1.480;2022-08-19T08:51:59;27.20;1.00
14924;DHT22;7554;43.600;1.480;2022-08-19T08:54:32;30.00;1.00
14924;DHT22;7554;43.600;1.480;2022-08-19T08:57:04;29.00;1.00
14924;DHT22;7554;43.600;1.480;2022-08-19T08:59:35;28.10;1.00
14924;DHT22;7554;43.600;1.480;2022-08-19T09:02:03;27.30;1.00
14924;DHT22;7554;43.600;1.480;2022-08-19T09:04:31;26.20;1.00
14924;DHT22;7554;43.600;1.480;2022-08-19T09:07:13;25.00;1.00
14924;DHT22;7554;43.600;1.480;2022-08-19T09:09:46;24.70;1.00
14924;DHT22;7554;43.600;1.480;2022-08-19T09:12:21;24.30;1.00
14924;DHT22;7554;43.600;1.480;2022-08-19T09:14:54;24.00;1.00
14924;DHT22;7554;43.600;1.480;2022-08-19T09:17:24;23.80;1.00
14924;DHT22;7554;43.600;1.480;2022-08-19T09:19:58;23.60;1.00
14924;DHT22;7554;43.600;1.480;2022-08-19T09:22:30;23.70;1.00
14924;DHT22;7554;43.600;1.480;2022-08-19T09:24:57;24.00;1.00
14924;DHT22;7554;43.600;1.480;2022-08-19T09:27:27;24.40;1.00
14924;DHT22;7554;43.600;1.480;2022-08-19T09:29:55;24.70;1.00
14924;DHT22;7554;43.600;1.480;2022-08-19T09:32:23;24.50;1.00
14924;DHT22;7554;43.600;1.480;2022-08-19T09:34:51;24.40;1.00
14924;DHT22;7554;43.600;1.480;2022-08-19T09:37:20;24.20;1.00
14924;DHT22;7554;43.600;1.480;2022-08-19T09:39:48;24.40;1.00
14924;DHT22;7554;43.600;1.480;2022-08-19T09:42:15;24.60;1.00
14924;DHT22;7554;43.600;1.480;2022-08-19T09:44:44;24.70;1.00
14924;DHT22;7554;43.600;1.480;2022-08-19T09:47:13;24.60;1.00
14924;DHT22;7554;43.600;1.480;2022-08-19T09:49:41;24.20;1.00
14924;DHT22;7554;43.600;1.480;2022-08-19T09:52:09;24.10;1.00
14924;DHT22;7554;43.600;1.480;2022-08-19T09:54:36;23.90;1.00
14924;DHT22;7554;43.600;1.480;2022-08-19T09:57:04;24.00;1.00
14924;DHT22;7554;43.600;1.480;2022-08-19T09:59:32;24.20;1.00
14924;DHT22;7554;43.600;1.480;2022-08-19T10:02:01;24.50;1.00
14924;DHT22;7554;43.600;1.480;2022-08-19T10:04:29;24.80;1.00
14924;DHT22;7554;43.600;1.480;2022-08-19T10:07:10;25.10;1.00
14924;DHT22;7554;43.600;1.480;2022-08-19T10:09:38;25.20;1.00
14924;DHT22;7554;43.600;1.480;2022-08-19T10:12:07;25.40;1.00
14924;DHT22;7554;43.600;1.480;2022-08-19T10:14:35;26.00;1.00
14924;DHT22;7554;43.600;1.480;2022-08-19T10:17:04;26.20;1.00
14924;DHT22;7554;43.600;1.480;2022-08-19T10:19:32;25.90;1.00
14924;DHT22;7554;43.600;1.480;2022-08-19T10:22:03;25.60;1.00
14924;DHT22;7554;43.600;1.480;2022-08-19T10:24:31;25.40;1.00
14924;DHT22;7554;43.600;1.480;2022-08-19T10:27:01;25.80;1.00
14924;DHT22;7554;43.600;1.480;2022-08-19T10:29:29;26.50;1.00
14924;DHT22;7554;43.600;1.480;2022-08-19T10:32:01;26.90;1.00
14924;DHT22;7554;43.600;1.480;2022-08-19T10:34:30;27.20;1.00
14924;DHT22;7554;43.600;1.480;2022-08-19T10:36:59;27.20;1.00
14924;DHT22;7554;43.600;1.480;2022-08-19T10:39:27;26.70;1.00
14924;DHT22;7554;43.600;1.480;2022-08-19T10:41:56;26.00;1.00
14924;DHT22;7554;43.600;1.480;2022-08-19T10:44:23;25.90;1.00
14924;DHT22;7554;43.600;1.480;2022-08-19T10:46:51;25.90;1.00
14924;DHT22;7554;43.600;1.480;2022-08-19T10:49:18;26.20;1.00
14924;DHT22;7554;43.600;1.480;2022-08-19T10:51:47;26.50;1.00
14924;DHT22;7554;43.600;1.480;2022-08-19T10:54:33;26.40;1.00
14924;DHT22;7554;43.600;1.480;2022-08-19T10:57:18;26.80;1.00
14924;DHT22;7554;43.600;1.480;2022-08-19T10:59:45;27.40;1.00
14924;DHT22;7554;43.600;1.480;2022-08-19T11:02:13;27.20;1.00
14924;DHT22;7554;43.600;1.480;2022-08-19T11:04:41;26.90;1.00
14924;DHT22;7554;43.600;1.480;2022-08-19T11:07:10;26.90;1.00
14924;DHT22;7554;43.600;1.480;2022-08-19T11:09:39;26.60;1.00
14924;DHT22;7554;43.600;1.480;2022-08-19T11:12:08;26.60;1.00
14924;DHT22;7554;43.600;1.480;2022-08-19T11:14:38;26.40;1.00
14924;DHT22;7554;43.600;1.480;2022-08-19T11:17:06;26.50;1.00
14924;DHT22;7554;43.600;1.480;2022-08-19T11:19:34;26.90;1.00
14924;DHT22;7554;43.600;1.480;2022-08-19T11:22:02;27.40;1.00
14924;DHT22;7554;43.600;1.480;2022-08-19T11:24:31;27.70;1.00
14924;DHT22;7554;43.600;1.480;2022-08-19T11:27:04;28.00;1.00
14924;DHT22;7554;43.600;1.480;2022-08-19T11:29:33;27.90;1.00
14924;DHT22;7554;43.600;1.480;2022-08-19T11:32:04;27.60;1.00
14924;DHT22;7554;43.600;1.480;2022-08-19T11:34:32;27.50;1.00
14924;DHT22;7554;43.600;1.480;2022-08-19T11:37:01;27.20;1.00
14924;DHT22;7554;43.600;1.480;2022-08-19T11:39:32;27.00;1.00
14924;DHT22;7554;43.600;1.480;2022-08-19T11:42:00;27.10;1.00
14924;DHT22;7554;43.600;1.480;2022-08-19T11:44:28;27.20;1.00
14924;DHT22;7554;43.600;1.480;2022-08-19T11:46:56;27.10;1.00
14924;DHT22;7554;43.600;1.480;2022-08-19T11:49:24;27.30;1.00
14924;DHT22;7554;43.600;1.480;2022-08-19T11:51:52;27.70;1.00
14924;DHT22;7554;43.600;1.480;2022-08-19T11:54:20;27.60;1.00
14924;DHT22;7554;43.600;1.480;2022-08-19T11:56:49;27.60;1.00
14924;DHT22;7554;43.600;1.480;2022-08-19T11:59:16;27.20;1.00
14924;DHT22;7554;43.600;1.480;2022-08-19T12:01:44;27.10;1.00
14924;DHT22;7554;43.600;1.480;2022-08-19T12:04:12;27.10;1.00
14924;DHT22;7554;43.600;1.480;2022-08-19T12:06:40;27.40;1.00
14924;DHT22;7554;43.600;1.480;2022-08-19T12:09:09;27.40;1.00
14924;DHT22;7554;43.600;1.480;2022-08-19T12:11:38;27.50;1.00
14924;DHT22;7554;43.600;1.480;2022-08-19T12:14:10;27.30;1.00
14924;DHT22;7554;43.600;1.480;2022-08-19T12:16:40;27.20;1.00
14924;DHT22;7554;43.600;1.480;2022-08-19T12:19:08;27.30;1.00
14924;DHT22;7554;43.600;1.480;2022-08-19T12:21:35;27.40;1.00
14924;DHT22;7554;43.600;1.480;2022-08-19T12:24:05;27.20;1.00
14924;DHT22;7554;43.600;1.480;2022-08-19T12:26:33;27.10;1.00
14924;DHT22;7554;43.600;1.480;2022-08-19T12:29:00;26.80;1.00
14924;DHT22;7554;43.600;1.480;2022-08-19T12:31:30;26.80;1.00
14924;DHT22;7554;43.600;1.480;2022-08-19T12:33:58;26.70;1.00
14924;DHT22;7554;43.600;1.480;2022-08-19T12:36:28;26.80;1.00
14924;DHT22;7554;43.600;1.480;2022-08-19T12:38:58;26.90;1.00
14924;DHT22;7554;43.600;1.480;2022-08-19T12:41:26;27.30;1.00
14924;DHT22;7554;43.600;1.480;2022-08-19T12:43:53;27.30;1.00
14924;DHT22;7554;43.600;1.480;2022-08-19T12:46:21;26.90;1.00
14924;DHT22;7554;43.600;1.480;2022-08-19T12:48:50;27.30;1.00
14924;DHT22;7554;43.600;1.480;2022-08-19T12:51:18;27.20;1.00
14924;DHT22;7554;43.600;1.480;2022-08-19T12:53:46;27.10;1.00
14924;DHT22;7554;43.600;1.480;2022-08-19T12:56:15;27.20;1.00
14924;DHT22;7554;43.600;1.480;2022-08-19T12:58:43;27.50;1.00
14924;DHT22;7554;43.600;1.480;2022-08-19T13:01:14;27.90;1.00
14924;DHT22;7554;43.600;1.480;2022-08-19T13:03:41;28.20;1.00
14924;DHT22;7554;43.600;1.480;2022-08-19T13:06:11;28.10;1.00
14924;DHT22;7554;43.600;1.480;2022-08-19T13:08:39;27.70;1.00
14924;DHT22;7554;43.600;1.480;2022-08-19T13:11:11;27.40;1.00
14924;DHT22;7554;43.600;1.480;2022-08-19T13:13:39;27.30;1.00
14924;DHT22;7554;43.600;1.480;2022-08-19T13:16:08;27.30;1.00
14924;DHT22;7554;43.600;1.480;2022-08-19T13:18:37;27.20;1.00
14924;DHT22;7554;43.600;1.480;2022-08-19T13:21:06;27.20;1.00
14924;DHT22;7554;43.600;1.480;2022-08-19T13:23:35;27.40;1.00
14924;DHT22;7554;43.600;1.480;2022-08-19T13:26:05;27.30;1.00
14924;DHT22;7554;43.600;1.480;2022-08-19T13:28:33;27.70;1.00
14924;DHT22;7554;43.600;1.480;2022-08-19T13:31:16;27.80;1.00
14924;DHT22;7554;43.600;1.480;2022-08-19T13:34:01;27.70;1.00
14924;DHT22;7554;43.600;1.480;2022-08-19T13:36:29;27.40;1.00
14924;DHT22;7554;43.600;1.480;2022-08-19T13:38:58;27.40;1.00
14924;DHT22;7554;43.600;1.480;2022-08-19T13:41:26;27.20;1.00
14924;DHT22;7554;43.600;1.480;2022-08-19T13:43:54;27.40;1.00
14924;DHT22;7554;43.600;1.480;2022-08-19T13:46:21;27.40;1.00
14924;DHT22;7554;43.600;1.480;2022-08-19T13:48:48;27.50;1.00
14924;DHT22;7554;43.600;1.480;2022-08-19T13:51:16;27.30;1.00
14924;DHT22;7554;43.600;1.480;2022-08-19T13:53:44;26.90;1.00
14924;DHT22;7554;43.600;1.480;2022-08-19T13:56:15;26.60;1.00
14924;DHT22;7554;43.600;1.480;2022-08-19T13:58:42;26.60;1.00
14924;DHT22;7554;43.600;1.480;2022-08-19T14:01:11;26.60;1.00
14924;DHT22;7554;43.600;1.480;2022-08-19T14:03:38;26.70;1.00
14924;DHT22;7554;43.600;1.480;2022-08-19T14:06:06;27.00;1.00
14924;DHT22;7554;43.600;1.480;2022-08-19T14:08:33;27.00;1.00
14924;DHT22;7554;43.600;1.480;2022-08-19T14:11:05;27.10;1.00
14924;DHT22;7554;43.600;1.480;2022-08-19T14:13:34;27.00;1.00
14924;DHT22;7554;43.600;1.480;2022-08-19T14:16:06;26.80;1.00
14924;DHT22;7554;43.600;1.480;2022-08-19T14:18:34;26.60;1.00
14924;DHT22;7554;43.600;1.480;2022-08-19T14:21:02;26.70;1.00
14924;DHT22;7554;43.600;1.480;2022-08-19T14:23:30;27.00;1.00
14924;DHT22;7554;43.600;1.480;2022-08-19T14:26:04;27.10;1.00
14924;DHT22;7554;43.600;1.480;2022-08-19T14:28:31;27.10;1.00
14924;DHT22;7554;43.600;1.480;2022-08-19T14:31:00;27.20;1.00
14924;DHT22;7554;43.600;1.480;2022-08-19T14:33:28;27.40;1.00
14924;DHT22;7554;43.600;1.480;2022-08-19T14:35:55;27.60;1.00
14924;DHT22;7554;43.600;1.480;2022-08-19T14:38:23;27.70;1.00
14924;DHT22;7554;43.600;1.480;2022-08-19T14:40:50;27.70;1.00
14924;DHT22;7554;43.600;1.480;2022-08-19T14:43:18;27.80;1.00
14924;DHT22;7554;43.600;1.480;2022-08-19T14:45:46;27.90;1.00
14924;DHT22;7554;43.600;1.480;2022-08-19T14:48:15;27.70;1.00
14924;DHT22;7554;43.600;1.480;2022-08-19T14:50:42;27.60;1.00
14924;DHT22;7554;43.600;1.480;2022-08-19T14:53:10;27.70;1.00
14924;DHT22;7554;43.600;1.480;2022-08-19T14:55:41;27.50;1.00
14924;DHT22;7554;43.600;1.480;2022-08-19T14:58:09;27.60;1.00
14924;DHT22;7554;43.600;1.480;2022-08-19T15:00:37;27.70;1.00
14924;DHT22;7554;43.600;1.480;2022-08-19T15:03:05;27.60;1.00
14924;DHT22;7554;43.600;1.480;2022-08-19T15:05:34;27.30;1.00
14924;DHT22;7554;43.600;1.480;2022-08-19T15:08:03;27.30;1.00
14924;DHT22;7554;43.600;1.480;2022-08-19T15:10:31;27.30;1.00
14924;DHT22;7554;43.600;1.480;2022-08-19T15:12:59;27.40;1.00
14924;DHT22;7554;43.600;1.480;2022-08-19T15:15:26;27.50;1.00
14924;DHT22;7554;43.600;1.480;2022-08-19T15:17:53;27.40;1.00
14924;DHT22;7554;43.600;1.480;2022-08-19T15:20:22;27.70;1.00
14924;DHT22;7554;43.600;1.480;2022-08-19T15:22:51;27.70;1.00
14924;DHT22;7554;43.600;1.480;2022-08-19T15:25:18;27.40;1.00
14924;DHT22;7554;43.600;1.480;2022-08-19T15:27:46;27.10;1.00
14924;DHT22;7554;43.600;1.480;2022-08-19T15:30:21;27.00;1.00
14924;DHT22;7554;43.600;1.480;2022-08-19T15:32:49;26.90;1.00
14924;DHT22;7554;43.600;1.480;2022-08-19T15:35:18;26.80;1.00
14924;DHT22;7554;43.600;1.480;2022-08-19T15:37:49;26.80;1.00
14924;DHT22;7554;43.600;1.480;2022-08-19T15:40:19;26.70;1.00
14924;DHT22;7554;43.600;1.480;2022-08-19T15:42:47;26.80;1.00
14924;DHT22;7554;43.600;1.480;2022-08-19T15:45:16;27.00;1.00
14924;DHT22;7554;43.600;1.480;2022-08-19T15:47:44;27.30;1.00
14924;DHT22;7554;43.600;1.480;2022-08-19T15:50:14;27.60;1.00
14924;DHT22;7554;43.600;1.480;2022-08-19T15:52:46;27.50;1.00
14924;DHT22;7554;43.600;1.480;2022-08-19T15:55:14;27.70;1.00
14924;DHT22;7554;43.600;1.480;2022-08-19T15:57:43;27.70;1.00
14924;DHT22;7554;43.600;1.480;2022-08-19T16:00:28;27.70;1.00
14924;DHT22;7554;43.600;1.480;2022-08-19T16:03:13;27.60;1.00
14924;DHT22;7554;43.600;1.480;2022-08-19T16:05:58;27.50;1.00
14924;DHT22;7554;43.600;1.480;2022-08-19T16:08:42;27.30;1.00
14924;DHT22;7554;43.600;1.480;2022-08-19T16:11:11;27.20;1.00
14924;DHT22;7554;43.600;1.480;2022-08-19T16:13:40;27.00;1.00
14924;DHT22;7554;43.600;1.480;2022-08-19T16:16:08;27.20;1.00
14924;DHT22;7554;43.600;1.480;2022-08-19T16:18:35;27.30;1.00